createdAt,value
2022-12-09T00:47:39.418Z,0.05
2022-12-09T00:50:08.147Z,0.07
2022-12-09T00:52:22.280Z,0.04
2022-12-09T01:04:13.277Z,0.03
2022-12-09T01:36:18.640Z,0.04
2022-12-09T01:39:17.827Z,0.03
2022-12-09T02:21:13.081Z,0.04
2022-12-09T02:24:08.347Z,0.03
2022-12-09T02:45:56.275Z,0.04
2022-12-09T02:48:17.043Z,0.03
2022-12-09T04:00:24.441Z,0.04
2022-12-09T04:03:00.092Z,0.03
2022-12-09T04:13:06.781Z,0.04
2022-12-09T04:17:47.604Z,0.03
2022-12-09T04:47:03.681Z,0.04
2022-12-09T04:56:56.349Z,0.03
2022-12-09T05:01:31.620Z,0.04
2022-12-09T05:16:53.021Z,0.03
2022-12-09T05:21:51.874Z,0.04
2022-12-09T05:24:00.227Z,0.03
2022-12-09T05:46:13.941Z,0.04
2022-12-09T05:51:50.304Z,0.05
2022-12-09T05:56:29.982Z,0.04
2022-12-09T06:06:06.960Z,0.05
2022-12-09T06:08:11.473Z,0.04
2022-12-09T06:11:04.889Z,0.05
2022-12-09T06:21:19.503Z,0.06
2022-12-09T06:24:05.023Z,0.08
2022-12-09T06:26:36.257Z,0.09
2022-12-09T06:28:53.590Z,0.1
2022-12-09T06:30:56.551Z,0.12
2022-12-09T06:33:55.208Z,0.15
2022-12-09T06:36:25.902Z,0.19
2022-12-09T06:38:48.479Z,0.26
2022-12-09T06:40:57.759Z,0.34
2022-12-09T06:43:55.532Z,0.48
2022-12-09T06:46:39.813Z,0.81
2022-12-09T06:49:08.844Z,1.25
2022-12-09T06:51:23.782Z,1.34
2022-12-09T06:53:24.749Z,1.62
2022-12-09T06:56:14.976Z,2.69
2022-12-09T06:58:50.595Z,4.21
2022-12-09T07:01:12.115Z,4.49
2022-12-09T07:03:19.444Z,4.77
2022-12-09T07:06:15.232Z,7.08
2022-12-09T07:08:57.321Z,8.83
2022-12-09T07:11:24.728Z,12.24
2022-12-09T07:13:38.089Z,17.76
2022-12-09T07:15:37.049Z,23.24
2022-12-09T07:18:25.219Z,28.2
2022-12-09T07:20:59.199Z,38.19
2022-12-09T07:23:18.461Z,46.94
2022-12-09T07:25:24.010Z,49.4
2022-12-09T07:28:18.529Z,64.94
2022-12-09T07:30:58.775Z,75.14
2022-12-09T07:33:24.826Z,82.64
2022-12-09T07:35:36.432Z,82.92
2022-12-09T07:37:34.232Z,82.56
2022-12-09T07:40:20.369Z,92.56
2022-12-09T07:42:54.869Z,114.24
2022-12-09T07:45:10.479Z,126.64
2022-12-09T07:47:14.081Z,141.8
2022-12-09T07:50:06.685Z,163.9
2022-12-09T07:52:44.663Z,169.7
2022-12-09T07:55:08.573Z,178.6
2022-12-09T07:57:18.385Z,191.3
2022-12-09T08:00:17.154Z,199.2
2022-12-09T08:03:01.729Z,208.4
2022-12-09T08:05:31.853Z,219
2022-12-09T08:07:48.377Z,220.6
2022-12-09T08:09:49.930Z,222.4
2022-12-09T08:12:40.712Z,233.4
2022-12-09T08:15:17.013Z,228.1
2022-12-09T08:17:39.522Z,240.8
2022-12-09T08:19:47.488Z,228.5
2022-12-09T08:22:44.132Z,265.7
2022-12-09T08:25:27.106Z,290.9
2022-12-09T08:27:55.632Z,309.1
2022-12-09T08:30:09.745Z,320.4
2022-12-09T08:32:09.724Z,350.7
2022-12-09T08:34:58.288Z,358.5
2022-12-09T08:37:32.745Z,340.6
2022-12-09T08:39:53.327Z,351.3
2022-12-09T08:41:59.455Z,339
2022-12-09T08:45:00.251Z,351
2022-12-09T08:47:35.419Z,348
2022-12-09T08:50:01.997Z,368.9
2022-12-09T08:52:14.907Z,384.4
2022-12-09T08:54:13.348Z,382.4
2022-12-09T08:57:00.421Z,405.4
2022-12-09T08:59:32.871Z,449.2
2022-12-09T09:01:51.755Z,487.2
2022-12-09T09:03:56.677Z,455.5
2022-12-09T09:06:50.369Z,516
2022-12-09T09:09:29.087Z,493.1
2022-12-09T09:11:53.455Z,524.9
2022-12-09T09:14:04.251Z,586
2022-12-09T09:17:03.500Z,617.1
2022-12-09T09:19:48.680Z,599
2022-12-09T09:22:19.731Z,572.6
2022-12-09T09:24:36.586Z,692.4
2022-12-09T09:26:38.814Z,670
2022-12-09T09:29:30.713Z,774.7
2022-12-09T09:32:07.672Z,721.2
2022-12-09T09:34:30.638Z,779.5
2022-12-09T09:36:39.682Z,811.5
2022-12-09T09:39:37.471Z,943
2022-12-09T09:42:20.993Z,685.1
2022-12-09T09:44:50.072Z,767.3
2022-12-09T09:47:05.458Z,765.1
2022-12-09T09:49:06.803Z,1062.4
2022-12-09T09:54:31.723Z,1315.2
2022-12-09T09:56:53.157Z,1163.2
2022-12-09T09:59:00.376Z,1115.5
2022-12-09T10:01:56.279Z,968.6
2022-12-09T10:04:38.403Z,853.4
2022-12-09T10:07:07.886Z,660.1
2022-12-09T10:09:18.917Z,610.8
2022-12-09T10:11:18.099Z,720
2022-12-09T10:14:05.988Z,742.7
2022-12-09T10:16:39.589Z,889.9
2022-12-09T10:19:02.570Z,706.2
2022-12-09T10:21:04.084Z,963.8
2022-12-09T10:23:57.682Z,1043.5
2022-12-09T10:26:37.450Z,1333.7
2022-12-09T10:29:03.247Z,808
2022-12-09T10:31:15.095Z,705.2
2022-12-09T10:33:12.679Z,751.3
2022-12-09T10:35:58.412Z,974.7
2022-12-09T10:38:30.400Z,861.7
2022-12-09T10:40:48.148Z,819.5
2022-12-09T10:42:51.769Z,784
2022-12-09T10:46:15.447Z,886.7
2022-12-09T10:48:21.849Z,773.1
2022-12-09T10:50:46.226Z,725.4
2022-12-09T10:52:56.127Z,711
2022-12-09T10:55:54.776Z,1027.2
2022-12-09T10:58:39.268Z,971.2
2022-12-09T11:01:08.974Z,951.6
2022-12-09T11:03:24.821Z,817.6
2022-12-09T11:05:26.717Z,673.9
2022-12-09T11:08:17.331Z,662.4
2022-12-09T11:10:53.578Z,677.4
2022-12-09T11:13:15.239Z,641.9
2022-12-09T11:15:23.297Z,596.6
2022-12-09T11:18:20.221Z,561.7
2022-12-09T11:21:02.231Z,556.6
2022-12-09T11:23:30.760Z,603.6
2022-12-09T11:25:44.662Z,551.6
2022-12-09T11:27:44.807Z,617.1
2022-12-09T11:30:33.389Z,882.2
2022-12-09T11:33:07.830Z,682.2
2022-12-09T11:35:28.077Z,727.3
2022-12-09T11:37:34.260Z,603
2022-12-09T11:40:29.206Z,599.8
2022-12-09T11:43:09.881Z,688
2022-12-09T11:45:36.239Z,698.2
2022-12-09T11:48:22.904Z,908.1
2022-12-09T11:49:46.946Z,820.8
2022-12-09T11:52:33.581Z,773.7
2022-12-09T11:55:06.326Z,1084.8
2022-12-09T11:57:24.827Z,1177.2
2022-12-09T11:59:31.305Z,1387.5
2022-12-09T12:02:21.896Z,1440
2022-12-09T12:05:00.784Z,1528.3
2022-12-09T12:07:25.474Z,1386.2
2022-12-09T12:09:36.335Z,1475.8
2022-12-09T12:12:35.557Z,1013.4
2022-12-09T12:15:20.719Z,1512.3
2022-12-09T12:17:51.624Z,1453.4
2022-12-09T12:20:08.836Z,1410.5
2022-12-09T12:22:11.420Z,1452.1
2022-12-09T12:25:02.796Z,1427.2
2022-12-09T12:27:39.983Z,1425.9
2022-12-09T12:30:03.228Z,1432.9
2022-12-09T12:32:12.042Z,1458.5
2022-12-09T12:35:09.839Z,1372.8
2022-12-09T12:37:53.360Z,856.3
2022-12-09T12:40:26.711Z,918
2022-12-09T12:42:37.725Z,822.4
2022-12-09T12:44:38.796Z,874.8
2022-12-09T12:47:28.618Z,971.8
2022-12-09T12:50:04.360Z,1183
2022-12-09T12:52:54.084Z,1555.2
2022-12-09T12:54:32.289Z,1395.2
2022-12-09T12:57:28.025Z,975.6
2022-12-09T13:00:10.078Z,985.9
2022-12-09T13:02:37.420Z,1385.6
2022-12-09T13:04:50.699Z,980.8
2022-12-09T13:06:50.141Z,877.4
2022-12-09T13:09:38.153Z,1064
2022-12-09T13:11:52.575Z,826.8
2022-12-09T13:13:53.041Z,747.2
2022-12-09T13:16:42.011Z,727.3
2022-12-09T13:19:17.027Z,704.3
2022-12-09T13:21:37.710Z,675.2
2022-12-09T13:23:44.215Z,646.8
2022-12-09T13:26:39.202Z,619.6
2022-12-09T13:29:19.993Z,618.2
2022-12-09T13:31:46.575Z,776
2022-12-09T13:33:59.223Z,832.9
2022-12-09T13:35:57.944Z,898.2
2022-12-09T13:38:44.732Z,840
2022-12-09T13:41:17.492Z,822.7
2022-12-09T13:43:36.374Z,1032.3
2022-12-09T13:45:40.682Z,1104.9
2022-12-09T13:48:33.731Z,1013.4
2022-12-09T13:51:12.828Z,694.7
2022-12-09T13:53:41.298Z,1028.1
2022-12-09T13:55:48.189Z,1041.2
2022-12-09T13:58:47.663Z,855
2022-12-09T14:01:32.862Z,580.9
2022-12-09T14:04:03.765Z,590.8
2022-12-09T14:06:20.589Z,531.2
2022-12-09T14:08:23.690Z,445.4
2022-12-09T14:11:15.333Z,416.4
2022-12-09T14:13:52.609Z,404.1
2022-12-09T14:16:16.307Z,485.6
2022-12-09T14:18:25.730Z,442.2
2022-12-09T14:21:23.427Z,435.3
2022-12-09T14:24:07.478Z,473.9
2022-12-09T14:26:36.792Z,486.7
2022-12-09T14:28:52.157Z,535.6
2022-12-09T14:30:53.391Z,451.8
2022-12-09T14:33:43.345Z,388.8
2022-12-09T14:36:19.091Z,327.4
2022-12-09T14:38:49.579Z,331.6
2022-12-09T14:40:47.645Z,312.8
2022-12-09T14:43:47.087Z,254
2022-12-09T14:46:25.816Z,246.5
2022-12-09T14:48:53.759Z,217.8
2022-12-09T14:51:07.474Z,210.2
2022-12-09T14:53:06.918Z,206.1
2022-12-09T14:55:55.243Z,195.9
2022-12-09T14:58:29.368Z,183.9
2022-12-09T15:00:49.220Z,168.8
2022-12-09T15:03:23.389Z,156.88
2022-12-09T15:05:49.631Z,135.68
2022-12-09T15:08:29.824Z,120.8
2022-12-09T15:10:55.598Z,106.2
2022-12-09T15:13:07.498Z,95.48
2022-12-09T15:15:05.178Z,84.8
2022-12-09T15:17:51.285Z,70.24
2022-12-09T15:20:23.488Z,59.14
2022-12-09T15:22:41.560Z,49.32
2022-12-09T15:24:50.396Z,42.12
2022-12-09T15:27:38.116Z,32.33
2022-12-09T15:30:16.033Z,25.27
2022-12-09T15:32:40.139Z,19.45
2022-12-09T15:34:50.203Z,15.53
2022-12-09T15:37:48.797Z,10.13
2022-12-09T15:40:33.297Z,7.32
2022-12-09T15:43:03.592Z,5.2
2022-12-09T15:45:19.967Z,3.66
2022-12-09T15:47:22.018Z,2.72
2022-12-09T15:50:12.694Z,1.72
2022-12-09T15:52:49.287Z,1.17
2022-12-09T15:55:11.732Z,0.81
2022-12-09T15:57:19.941Z,0.62
2022-12-09T16:00:16.995Z,0.41
2022-12-09T16:02:59.883Z,0.3
2022-12-09T16:05:28.369Z,0.22
2022-12-09T16:07:42.730Z,0.18
2022-12-09T16:09:43.041Z,0.15
2022-12-09T16:12:32.021Z,0.13
2022-12-09T16:15:06.707Z,0.12
2022-12-09T16:17:27.323Z,0.13
2022-12-09T16:19:33.745Z,0.11
2022-12-09T16:27:35.729Z,0.12
2022-12-09T16:29:48.269Z,0.1
2022-12-09T16:31:49.398Z,0.11
2022-12-09T16:34:33.999Z,0.1
2022-12-09T16:37:09.544Z,0.11
2022-12-09T16:41:30.028Z,0.1
2022-12-09T16:44:23.028Z,0.11
2022-12-09T16:47:01.872Z,0.12
2022-12-09T16:49:26.795Z,0.09
2022-12-09T16:51:37.658Z,0.11
2022-12-09T16:59:53.161Z,0.12
2022-12-09T17:04:12.809Z,0.11
2022-12-09T17:09:41.278Z,0.1
2022-12-09T17:12:04.163Z,0.11
2022-12-09T17:17:10.105Z,0.1
2022-12-09T17:19:53.375Z,0.09
2022-12-09T17:24:37.796Z,0.1
2022-12-09T17:26:38.680Z,0.12
2022-12-09T17:29:28.376Z,0.1
2022-12-09T17:34:25.152Z,0.09
2022-12-09T17:36:32.424Z,0.1
2022-12-09T17:39:28.047Z,0.09
2022-12-09T17:42:09.668Z,0.1
2022-12-09T17:46:50.418Z,0.11
2022-12-09T17:48:49.671Z,0.09
2022-12-09T17:54:11.213Z,0.1
2022-12-09T17:56:30.584Z,0.09
2022-12-09T18:01:29.947Z,0.11
2022-12-09T18:06:35.292Z,0.1
2022-12-09T18:10:44.126Z,0.09
2022-12-09T18:13:30.112Z,0.1
2022-12-09T18:16:01.903Z,0.09
2022-12-09T18:20:23.273Z,0.1
2022-12-09T18:23:15.284Z,0.11
2022-12-09T18:28:17.209Z,0.06
2022-12-09T18:33:25.286Z,0.07
2022-12-09T18:38:39.454Z,0.08
2022-12-09T18:40:55.175Z,0.06
2022-12-09T18:42:56.924Z,0.07
2022-12-09T18:48:23.268Z,0.06
2022-12-09T18:50:46.180Z,0.05
2022-12-09T18:52:53.455Z,0.06
2022-12-09T18:55:49.938Z,0.07
2022-12-09T18:58:57.836Z,0.08
2022-12-09T19:03:14.512Z,0.06
2022-12-09T19:08:03.470Z,0.07
2022-12-09T19:15:04.486Z,0.08
2022-12-09T19:17:59.312Z,0.07
2022-12-09T19:23:06.560Z,0.08
2022-12-09T19:25:19.052Z,0.09
2022-12-09T19:27:17.287Z,0.08
2022-12-09T19:30:04.221Z,0.07
2022-12-09T19:32:52.764Z,0.06
2022-12-09T19:34:55.287Z,0.07
2022-12-09T19:36:59.789Z,0.06
2022-12-09T19:42:31.539Z,0.07
2022-12-09T19:45:02.546Z,0.08
2022-12-09T19:50:06.146Z,0.07
2022-12-09T19:52:50.585Z,0.06
2022-12-09T19:55:21.680Z,0.07
2022-12-09T19:59:41.131Z,0.06
2022-12-09T21:04:14.534Z,0.07
2022-12-09T21:06:12.097Z,0.06
2022-12-09T21:11:29.839Z,0.08
2022-12-09T21:13:47.410Z,0.1
2022-12-09T21:15:51.042Z,0.07
2022-12-09T21:18:43.267Z,0.06
2022-12-09T22:21:15.749Z,0.05
2022-12-09T23:05:08.328Z,0.04
2022-12-09T23:22:58.848Z,0.03
